sensor_id;sensor_type;location;lat;lon;timestamp;temperature;humidity
41294;DHT22;27037;52.010;4.446;2023-07-22T00:00:49;16.50;99.90
41294;DHT22;27037;52.010;4.446;2023-07-22T00:03:15;16.50;99.90
41294;DHT22;27037;52.010;4.446;2023-07-22T00:05:41;16.50;99.90
41294;DHT22;27037;52.010;4.446;2023-07-22T00:08:07;16.40;99.90
41294;DHT22;27037;52.010;4.446;2023-07-22T00:10:32;16.40;99.90
41294;DHT22;27037;52.010;4.446;2023-07-22T00:12:58;16.40;99.90
41294;DHT22;27037;52.010;4.446;2023-07-22T00:15:24;16.40;99.90
41294;DHT22;27037;52.010;4.446;2023-07-22T00:17:50;16.30;99.90
41294;DHT22;27037;52.010;4.446;2023-07-22T00:20:17;16.30;99.90
41294;DHT22;27037;52.010;4.446;2023-07-22T00:22:43;16.30;99.90
41294;DHT22;27037;52.010;4.446;2023-07-22T00:25:12;16.20;99.90
41294;DHT22;27037;52.010;4.446;2023-07-22T00:27:42;16.20;99.90
41294;DHT22;27037;52.010;4.446;2023-07-22T00:30:08;16.20;99.90
41294;DHT22;27037;52.010;4.446;2023-07-22T00:32:34;16.10;99.90
41294;DHT22;27037;52.010;4.446;2023-07-22T00:35:03;16.10;99.90
41294;DHT22;27037;52.010;4.446;2023-07-22T00:37:30;16.00;99.90
41294;DHT22;27037;52.010;4.446;2023-07-22T00:39:55;16.00;99.90
41294;DHT22;27037;52.010;4.446;2023-07-22T00:42:21;16.00;99.90
41294;DHT22;27037;52.010;4.446;2023-07-22T00:44:47;16.00;99.90
41294;DHT22;27037;52.010;4.446;2023-07-22T00:47:13;16.00;99.90
41294;DHT22;27037;52.010;4.446;2023-07-22T00:49:39;16.00;99.90
41294;DHT22;27037;52.010;4.446;2023-07-22T00:52:05;15.90;99.90
41294;DHT22;27037;52.010;4.446;2023-07-22T00:54:31;15.90;99.90
41294;DHT22;27037;52.010;4.446;2023-07-22T00:56:57;15.80;99.90
41294;DHT22;27037;52.010;4.446;2023-07-22T00:59:24;15.80;99.90
41294;DHT22;27037;52.010;4.446;2023-07-22T01:01:50;15.80;99.90
41294;DHT22;27037;52.010;4.446;2023-07-22T01:04:19;15.80;99.90
41294;DHT22;27037;52.010;4.446;2023-07-22T01:06:45;15.80;99.90
41294;DHT22;27037;52.010;4.446;2023-07-22T01:09:11;15.80;99.90
41294;DHT22;27037;52.010;4.446;2023-07-22T01:11:37;15.80;99.90
41294;DHT22;27037;52.010;4.446;2023-07-22T01:14:03;15.80;99.90
41294;DHT22;27037;52.010;4.446;2023-07-22T01:16:29;15.80;99.90
41294;DHT22;27037;52.010;4.446;2023-07-22T01:18:55;15.80;99.90
41294;DHT22;27037;52.010;4.446;2023-07-22T01:21:25;15.80;99.90
41294;DHT22;27037;52.010;4.446;2023-07-22T01:23:52;15.90;99.90
41294;DHT22;27037;52.010;4.446;2023-07-22T01:26:18;15.80;99.90
41294;DHT22;27037;52.010;4.446;2023-07-22T01:28:44;15.80;99.90
41294;DHT22;27037;52.010;4.446;2023-07-22T01:31:10;15.80;99.90
41294;DHT22;27037;52.010;4.446;2023-07-22T01:33:36;15.80;99.90
41294;DHT22;27037;52.010;4.446;2023-07-22T01:36:03;15.80;99.90
41294;DHT22;27037;52.010;4.446;2023-07-22T01:38:29;15.80;99.90
41294;DHT22;27037;52.010;4.446;2023-07-22T01:40:55;15.80;99.90
41294;DHT22;27037;52.010;4.446;2023-07-22T01:43:21;15.80;99.90
41294;DHT22;27037;52.010;4.446;2023-07-22T01:45:47;15.80;99.90
41294;DHT22;27037;52.010;4.446;2023-07-22T01:48:12;15.80;99.90
41294;DHT22;27037;52.010;4.446;2023-07-22T01:50:38;15.80;99.90
41294;DHT22;27037;52.010;4.446;2023-07-22T01:53:04;15.70;99.90
41294;DHT22;27037;52.010;4.446;2023-07-22T01:55:31;15.70;99.90
41294;DHT22;27037;52.010;4.446;2023-07-22T01:57:58;15.70;99.90
41294;DHT22;27037;52.010;4.446;2023-07-22T02:00:24;15.70;99.90
41294;DHT22;27037;52.010;4.446;2023-07-22T02:02:49;15.60;99.90
41294;DHT22;27037;52.010;4.446;2023-07-22T02:05:15;15.60;99.90
41294;DHT22;27037;52.010;4.446;2023-07-22T02:07:41;15.60;99.90
41294;DHT22;27037;52.010;4.446;2023-07-22T02:10:07;15.60;99.90
41294;DHT22;27037;52.010;4.446;2023-07-22T02:12:35;15.50;99.90
41294;DHT22;27037;52.010;4.446;2023-07-22T02:15:01;15.60;99.90
41294;DHT22;27037;52.010;4.446;2023-07-22T02:17:27;15.60;99.90
41294;DHT22;27037;52.010;4.446;2023-07-22T02:19:53;15.60;99.90
41294;DHT22;27037;52.010;4.446;2023-07-22T02:22:19;15.50;99.90
41294;DHT22;27037;52.010;4.446;2023-07-22T02:24:45;15.50;99.90
41294;DHT22;27037;52.010;4.446;2023-07-22T02:27:10;15.60;99.90
41294;DHT22;27037;52.010;4.446;2023-07-22T02:29:36;15.50;99.90
41294;DHT22;27037;52.010;4.446;2023-07-22T02:32:02;15.50;99.90
41294;DHT22;27037;52.010;4.446;2023-07-22T02:34:28;15.50;99.90
41294;DHT22;27037;52.010;4.446;2023-07-22T02:36:54;15.50;99.90
41294;DHT22;27037;52.010;4.446;2023-07-22T02:39:20;15.50;99.90
41294;DHT22;27037;52.010;4.446;2023-07-22T02:41:45;15.50;99.90
41294;DHT22;27037;52.010;4.446;2023-07-22T02:44:11;15.50;99.90
41294;DHT22;27037;52.010;4.446;2023-07-22T02:46:38;15.40;99.90
41294;DHT22;27037;52.010;4.446;2023-07-22T02:49:03;15.40;99.90
41294;DHT22;27037;52.010;4.446;2023-07-22T02:51:30;15.50;99.90
41294;DHT22;27037;52.010;4.446;2023-07-22T02:53:56;15.50;99.90
41294;DHT22;27037;52.010;4.446;2023-07-22T02:56:21;15.50;99.90
41294;DHT22;27037;52.010;4.446;2023-07-22T02:58:47;15.50;99.90
41294;DHT22;27037;52.010;4.446;2023-07-22T03:01:13;15.50;99.90
41294;DHT22;27037;52.010;4.446;2023-07-22T03:03:39;15.50;99.90
41294;DHT22;27037;52.010;4.446;2023-07-22T03:06:05;15.40;99.90
41294;DHT22;27037;52.010;4.446;2023-07-22T03:08:32;15.40;99.90
41294;DHT22;27037;52.010;4.446;2023-07-22T03:10:58;15.40;99.90
41294;DHT22;27037;52.010;4.446;2023-07-22T03:13:24;15.40;99.90
41294;DHT22;27037;52.010;4.446;2023-07-22T03:15:49;15.40;99.90
41294;DHT22;27037;52.010;4.446;2023-07-22T03:18:15;15.40;99.90
41294;DHT22;27037;52.010;4.446;2023-07-22T03:20:41;15.40;99.90
41294;DHT22;27037;52.010;4.446;2023-07-22T03:23:07;15.50;99.90
41294;DHT22;27037;52.010;4.446;2023-07-22T03:25:33;15.50;99.90
41294;DHT22;27037;52.010;4.446;2023-07-22T03:28:03;15.50;99.90
41294;DHT22;27037;52.010;4.446;2023-07-22T03:30:30;15.50;99.90
41294;DHT22;27037;52.010;4.446;2023-07-22T03:32:56;15.50;99.90
41294;DHT22;27037;52.010;4.446;2023-07-22T03:35:22;15.50;99.90
41294;DHT22;27037;52.010;4.446;2023-07-22T03:37:48;15.50;99.90
41294;DHT22;27037;52.010;4.446;2023-07-22T03:40:14;15.50;99.90
41294;DHT22;27037;52.010;4.446;2023-07-22T03:42:51;15.50;99.90
41294;DHT22;27037;52.010;4.446;2023-07-22T03:45:18;15.50;99.90
41294;DHT22;27037;52.010;4.446;2023-07-22T03:47:45;15.50;99.90
41294;DHT22;27037;52.010;4.446;2023-07-22T03:50:12;15.50;99.90
41294;DHT22;27037;52.010;4.446;2023-07-22T03:52:37;15.50;99.90
41294;DHT22;27037;52.010;4.446;2023-07-22T03:55:04;15.50;99.90
41294;DHT22;27037;52.010;4.446;2023-07-22T03:57:31;15.60;99.90
41294;DHT22;27037;52.010;4.446;2023-07-22T03:59:57;15.60;99.90
41294;DHT22;27037;52.010;4.446;2023-07-22T04:02:23;15.60;99.90
41294;DHT22;27037;52.010;4.446;2023-07-22T04:04:54;15.60;99.90
41294;DHT22;27037;52.010;4.446;2023-07-22T04:07:20;15.60;99.90
41294;DHT22;27037;52.010;4.446;2023-07-22T04:09:45;15.60;99.90
41294;DHT22;27037;52.010;4.446;2023-07-22T04:12:11;15.60;99.90
41294;DHT22;27037;52.010;4.446;2023-07-22T04:14:38;15.60;99.90
41294;DHT22;27037;52.010;4.446;2023-07-22T04:17:04;15.60;99.90
41294;DHT22;27037;52.010;4.446;2023-07-22T04:19:30;15.70;99.90
41294;DHT22;27037;52.010;4.446;2023-07-22T04:21:56;15.70;99.90
41294;DHT22;27037;52.010;4.446;2023-07-22T04:24:22;15.70;99.90
41294;DHT22;27037;52.010;4.446;2023-07-22T04:26:48;15.70;99.90
41294;DHT22;27037;52.010;4.446;2023-07-22T04:29:14;15.80;99.90
41294;DHT22;27037;52.010;4.446;2023-07-22T04:31:40;15.80;99.90
41294;DHT22;27037;52.010;4.446;2023-07-22T04:34:05;15.80;99.90
41294;DHT22;27037;52.010;4.446;2023-07-22T04:36:32;15.80;99.90
41294;DHT22;27037;52.010;4.446;2023-07-22T04:38:57;15.90;99.90
41294;DHT22;27037;52.010;4.446;2023-07-22T04:41:23;15.90;99.90
41294;DHT22;27037;52.010;4.446;2023-07-22T04:43:50;15.90;99.90
41294;DHT22;27037;52.010;4.446;2023-07-22T04:46:16;15.90;99.90
41294;DHT22;27037;52.010;4.446;2023-07-22T04:48:42;16.00;99.90
41294;DHT22;27037;52.010;4.446;2023-07-22T04:51:08;16.00;99.90
41294;DHT22;27037;52.010;4.446;2023-07-22T04:53:34;16.00;99.90
41294;DHT22;27037;52.010;4.446;2023-07-22T04:55:59;16.10;99.90
41294;DHT22;27037;52.010;4.446;2023-07-22T04:58:25;16.10;99.90
41294;DHT22;27037;52.010;4.446;2023-07-22T05:00:51;16.20;99.90
41294;DHT22;27037;52.010;4.446;2023-07-22T05:03:17;16.20;99.90
41294;DHT22;27037;52.010;4.446;2023-07-22T05:05:44;16.20;99.90
41294;DHT22;27037;52.010;4.446;2023-07-22T05:08:10;16.20;99.90
41294;DHT22;27037;52.010;4.446;2023-07-22T05:10:36;16.30;99.90
41294;DHT22;27037;52.010;4.446;2023-07-22T05:13:03;16.30;99.90
41294;DHT22;27037;52.010;4.446;2023-07-22T05:15:29;16.30;99.90
41294;DHT22;27037;52.010;4.446;2023-07-22T05:17:55;16.40;99.90
41294;DHT22;27037;52.010;4.446;2023-07-22T05:20:20;16.40;99.90
41294;DHT22;27037;52.010;4.446;2023-07-22T05:22:48;16.50;99.90
41294;DHT22;27037;52.010;4.446;2023-07-22T05:25:14;16.50;99.90
41294;DHT22;27037;52.010;4.446;2023-07-22T05:27:40;16.50;99.90
41294;DHT22;27037;52.010;4.446;2023-07-22T05:30:06;16.60;99.90
41294;DHT22;27037;52.010;4.446;2023-07-22T05:32:32;16.60;99.90
41294;DHT22;27037;52.010;4.446;2023-07-22T05:34:58;16.60;99.90
41294;DHT22;27037;52.010;4.446;2023-07-22T05:37:24;16.70;99.90
41294;DHT22;27037;52.010;4.446;2023-07-22T05:39:50;16.70;99.90
41294;DHT22;27037;52.010;4.446;2023-07-22T05:42:16;16.80;99.90
41294;DHT22;27037;52.010;4.446;2023-07-22T05:44:47;16.80;99.90
41294;DHT22;27037;52.010;4.446;2023-07-22T05:47:13;16.90;99.90
41294;DHT22;27037;52.010;4.446;2023-07-22T05:49:39;16.90;99.90
41294;DHT22;27037;52.010;4.446;2023-07-22T05:52:05;17.00;99.90
41294;DHT22;27037;52.010;4.446;2023-07-22T05:54:31;17.00;99.90
41294;DHT22;27037;52.010;4.446;2023-07-22T05:56:57;17.10;99.90
41294;DHT22;27037;52.010;4.446;2023-07-22T05:59:23;17.10;99.90
41294;DHT22;27037;52.010;4.446;2023-07-22T06:01:49;17.20;99.90
41294;DHT22;27037;52.010;4.446;2023-07-22T06:04:14;17.20;99.90
41294;DHT22;27037;52.010;4.446;2023-07-22T06:06:40;17.30;99.90
41294;DHT22;27037;52.010;4.446;2023-07-22T06:09:06;17.30;99.90
41294;DHT22;27037;52.010;4.446;2023-07-22T06:11:31;17.40;99.90
41294;DHT22;27037;52.010;4.446;2023-07-22T06:13:57;17.40;99.90
41294;DHT22;27037;52.010;4.446;2023-07-22T06:16:23;17.40;99.90
41294;DHT22;27037;52.010;4.446;2023-07-22T06:18:48;17.40;99.90
41294;DHT22;27037;52.010;4.446;2023-07-22T06:21:14;17.40;99.90
41294;DHT22;27037;52.010;4.446;2023-07-22T06:23:40;17.50;99.90
41294;DHT22;27037;52.010;4.446;2023-07-22T06:26:07;17.50;99.90
41294;DHT22;27037;52.010;4.446;2023-07-22T06:28:32;17.60;99.90
41294;DHT22;27037;52.010;4.446;2023-07-22T06:30:58;17.70;99.90
41294;DHT22;27037;52.010;4.446;2023-07-22T06:33:23;17.70;99.90
41294;DHT22;27037;52.010;4.446;2023-07-22T06:35:49;17.70;99.90
41294;DHT22;27037;52.010;4.446;2023-07-22T06:38:15;17.80;99.90
41294;DHT22;27037;52.010;4.446;2023-07-22T06:40:40;17.80;99.90
41294;DHT22;27037;52.010;4.446;2023-07-22T06:43:06;17.90;99.90
41294;DHT22;27037;52.010;4.446;2023-07-22T06:45:32;17.90;99.90
41294;DHT22;27037;52.010;4.446;2023-07-22T06:47:58;18.00;99.90
41294;DHT22;27037;52.010;4.446;2023-07-22T06:50:24;18.00;99.90
41294;DHT22;27037;52.010;4.446;2023-07-22T06:52:49;18.10;99.90
41294;DHT22;27037;52.010;4.446;2023-07-22T06:55:15;18.10;99.90
41294;DHT22;27037;52.010;4.446;2023-07-22T06:57:41;18.10;99.90
41294;DHT22;27037;52.010;4.446;2023-07-22T07:00:07;18.20;99.90
41294;DHT22;27037;52.010;4.446;2023-07-22T07:02:35;18.20;99.90
41294;DHT22;27037;52.010;4.446;2023-07-22T07:05:01;18.20;99.90
41294;DHT22;27037;52.010;4.446;2023-07-22T07:07:27;18.30;99.90
41294;DHT22;27037;52.010;4.446;2023-07-22T07:09:52;18.30;99.90
41294;DHT22;27037;52.010;4.446;2023-07-22T07:12:18;18.30;99.90
41294;DHT22;27037;52.010;4.446;2023-07-22T07:14:44;18.30;99.90
41294;DHT22;27037;52.010;4.446;2023-07-22T07:17:09;18.40;99.90
41294;DHT22;27037;52.010;4.446;2023-07-22T07:19:35;18.40;99.90
41294;DHT22;27037;52.010;4.446;2023-07-22T07:22:01;18.40;99.90
41294;DHT22;27037;52.010;4.446;2023-07-22T07:24:26;18.40;99.90
41294;DHT22;27037;52.010;4.446;2023-07-22T07:26:53;18.40;99.90
41294;DHT22;27037;52.010;4.446;2023-07-22T07:29:18;18.50;99.90
41294;DHT22;27037;52.010;4.446;2023-07-22T07:31:44;18.50;99.90
41294;DHT22;27037;52.010;4.446;2023-07-22T07:34:09;18.40;99.90
41294;DHT22;27037;52.010;4.446;2023-07-22T07:36:35;18.40;99.90
41294;DHT22;27037;52.010;4.446;2023-07-22T07:39:01;18.40;99.90
41294;DHT22;27037;52.010;4.446;2023-07-22T07:41:28;18.40;99.90
41294;DHT22;27037;52.010;4.446;2023-07-22T07:43:54;18.50;99.90
41294;DHT22;27037;52.010;4.446;2023-07-22T07:46:27;18.50;99.90
41294;DHT22;27037;52.010;4.446;2023-07-22T07:48:57;18.60;99.90
41294;DHT22;27037;52.010;4.446;2023-07-22T07:51:25;18.60;99.90
41294;DHT22;27037;52.010;4.446;2023-07-22T07:53:53;18.70;99.90
41294;DHT22;27037;52.010;4.446;2023-07-22T07:56:19;18.70;99.90
41294;DHT22;27037;52.010;4.446;2023-07-22T07:58:46;18.70;99.90
41294;DHT22;27037;52.010;4.446;2023-07-22T08:01:12;18.80;99.90
41294;DHT22;27037;52.010;4.446;2023-07-22T08:03:39;18.90;99.90
41294;DHT22;27037;52.010;4.446;2023-07-22T08:06:05;18.90;99.90
41294;DHT22;27037;52.010;4.446;2023-07-22T08:08:32;19.00;99.90
41294;DHT22;27037;52.010;4.446;2023-07-22T08:11:02;19.10;99.90
41294;DHT22;27037;52.010;4.446;2023-07-22T08:13:28;19.10;99.90
41294;DHT22;27037;52.010;4.446;2023-07-22T08:15:59;19.10;99.90
41294;DHT22;27037;52.010;4.446;2023-07-22T08:18:25;19.20;99.90
41294;DHT22;27037;52.010;4.446;2023-07-22T08:20:52;19.20;99.90
41294;DHT22;27037;52.010;4.446;2023-07-22T08:23:19;19.30;99.90
41294;DHT22;27037;52.010;4.446;2023-07-22T08:25:45;19.30;99.90
41294;DHT22;27037;52.010;4.446;2023-07-22T08:28:10;19.40;99.90
41294;DHT22;27037;52.010;4.446;2023-07-22T08:30:36;19.50;99.90
41294;DHT22;27037;52.010;4.446;2023-07-22T08:33:02;19.60;99.90
41294;DHT22;27037;52.010;4.446;2023-07-22T08:35:28;19.60;99.90
41294;DHT22;27037;52.010;4.446;2023-07-22T08:37:53;19.50;99.90
41294;DHT22;27037;52.010;4.446;2023-07-22T08:40:20;19.50;99.90
41294;DHT22;27037;52.010;4.446;2023-07-22T08:42:46;19.60;99.90
41294;DHT22;27037;52.010;4.446;2023-07-22T08:45:14;19.60;99.90
41294;DHT22;27037;52.010;4.446;2023-07-22T08:47:47;19.60;99.90
41294;DHT22;27037;52.010;4.446;2023-07-22T08:50:20;19.70;99.90
41294;DHT22;27037;52.010;4.446;2023-07-22T08:52:46;19.80;99.90
41294;DHT22;27037;52.010;4.446;2023-07-22T08:55:13;19.90;99.90
41294;DHT22;27037;52.010;4.446;2023-07-22T08:57:39;19.90;99.90
41294;DHT22;27037;52.010;4.446;2023-07-22T09:00:07;20.00;99.90
41294;DHT22;27037;52.010;4.446;2023-07-22T09:02:34;20.00;99.90
41294;DHT22;27037;52.010;4.446;2023-07-22T09:05:00;20.10;99.90
41294;DHT22;27037;52.010;4.446;2023-07-22T09:07:26;20.10;99.90
41294;DHT22;27037;52.010;4.446;2023-07-22T09:09:52;20.10;99.90
41294;DHT22;27037;52.010;4.446;2023-07-22T09:12:20;20.10;99.90
41294;DHT22;27037;52.010;4.446;2023-07-22T09:14:47;20.20;99.90
41294;DHT22;27037;52.010;4.446;2023-07-22T09:17:13;20.20;99.90
41294;DHT22;27037;52.010;4.446;2023-07-22T09:19:39;20.30;99.90
41294;DHT22;27037;52.010;4.446;2023-07-22T09:22:04;20.40;99.90
41294;DHT22;27037;52.010;4.446;2023-07-22T09:24:30;20.40;99.90
41294;DHT22;27037;52.010;4.446;2023-07-22T09:26:58;20.30;99.90
41294;DHT22;27037;52.010;4.446;2023-07-22T09:29:37;20.20;99.90
41294;DHT22;27037;52.010;4.446;2023-07-22T09:32:04;20.10;99.90
41294;DHT22;27037;52.010;4.446;2023-07-22T09:34:30;20.00;99.90
41294;DHT22;27037;52.010;4.446;2023-07-22T09:36:57;19.80;99.90
41294;DHT22;27037;52.010;4.446;2023-07-22T09:39:26;19.70;99.90
41294;DHT22;27037;52.010;4.446;2023-07-22T09:41:52;19.50;99.90
41294;DHT22;27037;52.010;4.446;2023-07-22T09:44:21;19.40;99.90
41294;DHT22;27037;52.010;4.446;2023-07-22T09:46:48;19.00;99.90
41294;DHT22;27037;52.010;4.446;2023-07-22T09:49:17;18.70;99.90
41294;DHT22;27037;52.010;4.446;2023-07-22T09:51:43;18.50;99.90
41294;DHT22;27037;52.010;4.446;2023-07-22T09:54:09;18.30;99.90
41294;DHT22;27037;52.010;4.446;2023-07-22T09:56:47;18.20;99.90
41294;DHT22;27037;52.010;4.446;2023-07-22T09:59:13;18.00;99.90
41294;DHT22;27037;52.010;4.446;2023-07-22T10:01:40;17.90;99.90
41294;DHT22;27037;52.010;4.446;2023-07-22T10:04:06;17.80;99.90
41294;DHT22;27037;52.010;4.446;2023-07-22T10:06:33;17.70;99.90
41294;DHT22;27037;52.010;4.446;2023-07-22T10:09:05;17.70;99.90
41294;DHT22;27037;52.010;4.446;2023-07-22T10:11:34;17.70;99.90
41294;DHT22;27037;52.010;4.446;2023-07-22T10:14:02;17.80;99.90
41294;DHT22;27037;52.010;4.446;2023-07-22T10:16:28;17.90;99.90
41294;DHT22;27037;52.010;4.446;2023-07-22T10:18:55;17.90;99.90
41294;DHT22;27037;52.010;4.446;2023-07-22T10:21:22;17.80;99.90
41294;DHT22;27037;52.010;4.446;2023-07-22T10:23:49;17.80;99.90
41294;DHT22;27037;52.010;4.446;2023-07-22T10:26:19;17.70;99.90
41294;DHT22;27037;52.010;4.446;2023-07-22T10:28:46;17.70;99.90
41294;DHT22;27037;52.010;4.446;2023-07-22T10:31:15;17.70;99.90
41294;DHT22;27037;52.010;4.446;2023-07-22T10:33:47;17.70;99.90
41294;DHT22;27037;52.010;4.446;2023-07-22T10:36:17;17.80;99.90
41294;DHT22;27037;52.010;4.446;2023-07-22T10:38:43;18.00;99.90
41294;DHT22;27037;52.010;4.446;2023-07-22T10:41:16;18.10;99.90
41294;DHT22;27037;52.010;4.446;2023-07-22T10:43:58;18.30;99.90
41294;DHT22;27037;52.010;4.446;2023-07-22T10:49:15;18.60;99.90
41294;DHT22;27037;52.010;4.446;2023-07-22T10:51:48;18.90;99.90
41294;DHT22;27037;52.010;4.446;2023-07-22T10:54:15;19.10;99.90
41294;DHT22;27037;52.010;4.446;2023-07-22T10:56:56;19.30;99.90
41294;DHT22;27037;52.010;4.446;2023-07-22T10:59:28;19.40;99.90
41294;DHT22;27037;52.010;4.446;2023-07-22T11:01:54;19.40;99.90
41294;DHT22;27037;52.010;4.446;2023-07-22T11:04:24;19.50;99.90
41294;DHT22;27037;52.010;4.446;2023-07-22T11:06:57;19.50;99.90
41294;DHT22;27037;52.010;4.446;2023-07-22T11:14:29;19.60;99.90
41294;DHT22;27037;52.010;4.446;2023-07-22T11:17:01;19.70;99.90
41294;DHT22;27037;52.010;4.446;2023-07-22T11:19:27;19.80;99.90
41294;DHT22;27037;52.010;4.446;2023-07-22T11:21:54;19.90;99.90
41294;DHT22;27037;52.010;4.446;2023-07-22T11:24:21;20.00;99.90
41294;DHT22;27037;52.010;4.446;2023-07-22T11:26:48;20.10;99.90
41294;DHT22;27037;52.010;4.446;2023-07-22T11:29:16;20.20;99.90
41294;DHT22;27037;52.010;4.446;2023-07-22T11:31:47;20.20;99.90
41294;DHT22;27037;52.010;4.446;2023-07-22T11:34:18;20.20;99.90
41294;DHT22;27037;52.010;4.446;2023-07-22T11:36:45;20.30;99.90
41294;DHT22;27037;52.010;4.446;2023-07-22T11:39:16;20.40;99.90
41294;DHT22;27037;52.010;4.446;2023-07-22T11:41:46;20.50;99.90
41294;DHT22;27037;52.010;4.446;2023-07-22T11:44:14;20.60;99.90
41294;DHT22;27037;52.010;4.446;2023-07-22T11:51:59;20.60;99.90
41294;DHT22;27037;52.010;4.446;2023-07-22T11:54:26;20.50;99.90
41294;DHT22;27037;52.010;4.446;2023-07-22T11:56:52;20.50;99.90
41294;DHT22;27037;52.010;4.446;2023-07-22T11:59:18;20.40;99.90
41294;DHT22;27037;52.010;4.446;2023-07-22T12:01:57;20.40;99.90
41294;DHT22;27037;52.010;4.446;2023-07-22T12:04:23;20.40;99.90
41294;DHT22;27037;52.010;4.446;2023-07-22T12:06:49;20.30;99.90
41294;DHT22;27037;52.010;4.446;2023-07-22T12:09:15;20.20;99.90
41294;DHT22;27037;52.010;4.446;2023-07-22T12:11:40;20.20;99.90
41294;DHT22;27037;52.010;4.446;2023-07-22T12:14:13;20.10;99.90
41294;DHT22;27037;52.010;4.446;2023-07-22T12:16:41;20.10;99.90
41294;DHT22;27037;52.010;4.446;2023-07-22T12:19:08;19.90;99.90
41294;DHT22;27037;52.010;4.446;2023-07-22T12:21:34;19.90;99.90
41294;DHT22;27037;52.010;4.446;2023-07-22T12:24:00;19.80;99.90
41294;DHT22;27037;52.010;4.446;2023-07-22T12:26:27;19.70;99.90
41294;DHT22;27037;52.010;4.446;2023-07-22T12:28:52;19.60;99.90
41294;DHT22;27037;52.010;4.446;2023-07-22T12:31:18;19.60;99.90
41294;DHT22;27037;52.010;4.446;2023-07-22T12:33:44;19.60;99.90
41294;DHT22;27037;52.010;4.446;2023-07-22T12:36:10;19.60;99.90
41294;DHT22;27037;52.010;4.446;2023-07-22T12:38:36;19.60;99.90
41294;DHT22;27037;52.010;4.446;2023-07-22T12:41:02;19.60;99.90
41294;DHT22;27037;52.010;4.446;2023-07-22T12:43:28;19.60;99.90
41294;DHT22;27037;52.010;4.446;2023-07-22T12:45:53;19.60;99.90
41294;DHT22;27037;52.010;4.446;2023-07-22T12:48:19;19.60;99.90
41294;DHT22;27037;52.010;4.446;2023-07-22T12:50:45;19.70;99.90
41294;DHT22;27037;52.010;4.446;2023-07-22T12:53:13;19.70;99.90
41294;DHT22;27037;52.010;4.446;2023-07-22T12:55:38;19.70;99.90
41294;DHT22;27037;52.010;4.446;2023-07-22T12:58:04;19.70;99.90
41294;DHT22;27037;52.010;4.446;2023-07-22T13:00:30;19.70;99.90
41294;DHT22;27037;52.010;4.446;2023-07-22T13:02:56;19.80;99.90
41294;DHT22;27037;52.010;4.446;2023-07-22T13:05:22;19.80;99.90
41294;DHT22;27037;52.010;4.446;2023-07-22T13:07:48;19.70;99.90
41294;DHT22;27037;52.010;4.446;2023-07-22T13:10:15;19.70;99.90
41294;DHT22;27037;52.010;4.446;2023-07-22T13:12:43;19.70;99.90
41294;DHT22;27037;52.010;4.446;2023-07-22T13:15:09;19.70;99.90
41294;DHT22;27037;52.010;4.446;2023-07-22T13:17:35;19.70;99.90
41294;DHT22;27037;52.010;4.446;2023-07-22T13:20:02;19.80;99.90
41294;DHT22;27037;52.010;4.446;2023-07-22T13:22:30;19.80;99.90
41294;DHT22;27037;52.010;4.446;2023-07-22T13:24:56;19.70;99.90
41294;DHT22;27037;52.010;4.446;2023-07-22T13:27:21;19.80;99.90
41294;DHT22;27037;52.010;4.446;2023-07-22T13:29:47;19.80;99.90
41294;DHT22;27037;52.010;4.446;2023-07-22T13:32:13;19.90;99.90
41294;DHT22;27037;52.010;4.446;2023-07-22T13:34:38;19.90;99.90
41294;DHT22;27037;52.010;4.446;2023-07-22T13:37:04;20.00;99.90
41294;DHT22;27037;52.010;4.446;2023-07-22T13:39:31;20.10;99.90
41294;DHT22;27037;52.010;4.446;2023-07-22T13:41:56;20.20;99.90
41294;DHT22;27037;52.010;4.446;2023-07-22T13:44:22;20.30;99.90
41294;DHT22;27037;52.010;4.446;2023-07-22T13:46:48;20.40;99.90
41294;DHT22;27037;52.010;4.446;2023-07-22T13:49:13;20.50;99.90
41294;DHT22;27037;52.010;4.446;2023-07-22T13:51:40;20.50;99.90
41294;DHT22;27037;52.010;4.446;2023-07-22T13:54:06;20.50;99.90
41294;DHT22;27037;52.010;4.446;2023-07-22T13:56:32;20.50;99.90
41294;DHT22;27037;52.010;4.446;2023-07-22T13:59:02;20.40;99.90
41294;DHT22;27037;52.010;4.446;2023-07-22T14:01:30;20.40;99.90
41294;DHT22;27037;52.010;4.446;2023-07-22T14:03:56;20.30;99.90
41294;DHT22;27037;52.010;4.446;2023-07-22T14:06:22;20.20;99.90
41294;DHT22;27037;52.010;4.446;2023-07-22T14:08:48;20.20;99.90
41294;DHT22;27037;52.010;4.446;2023-07-22T14:11:14;20.00;99.90
41294;DHT22;27037;52.010;4.446;2023-07-22T14:13:39;20.00;99.90
41294;DHT22;27037;52.010;4.446;2023-07-22T14:16:05;19.90;99.90
41294;DHT22;27037;52.010;4.446;2023-07-22T14:18:30;19.80;99.90
41294;DHT22;27037;52.010;4.446;2023-07-22T14:20:56;19.80;99.90
41294;DHT22;27037;52.010;4.446;2023-07-22T14:23:25;19.70;99.90
41294;DHT22;27037;52.010;4.446;2023-07-22T14:25:51;19.80;99.90
41294;DHT22;27037;52.010;4.446;2023-07-22T14:28:16;19.70;99.90
41294;DHT22;27037;52.010;4.446;2023-07-22T14:30:42;19.70;99.90
41294;DHT22;27037;52.010;4.446;2023-07-22T14:33:08;19.60;99.90
41294;DHT22;27037;52.010;4.446;2023-07-22T14:35:33;19.60;99.90
41294;DHT22;27037;52.010;4.446;2023-07-22T14:38:00;19.50;99.90
41294;DHT22;27037;52.010;4.446;2023-07-22T14:40:26;19.50;99.90
41294;DHT22;27037;52.010;4.446;2023-07-22T14:42:52;19.50;99.90
41294;DHT22;27037;52.010;4.446;2023-07-22T14:45:20;19.40;99.90
41294;DHT22;27037;52.010;4.446;2023-07-22T14:47:46;19.40;99.90
41294;DHT22;27037;52.010;4.446;2023-07-22T14:50:12;19.50;99.90
41294;DHT22;27037;52.010;4.446;2023-07-22T14:52:38;19.50;99.90
41294;DHT22;27037;52.010;4.446;2023-07-22T14:55:04;19.70;99.90
41294;DHT22;27037;52.010;4.446;2023-07-22T14:57:30;19.80;99.90
41294;DHT22;27037;52.010;4.446;2023-07-22T14:59:56;19.90;99.90
41294;DHT22;27037;52.010;4.446;2023-07-22T15:02:24;19.90;99.90
41294;DHT22;27037;52.010;4.446;2023-07-22T15:04:52;20.10;99.90
41294;DHT22;27037;52.010;4.446;2023-07-22T15:07:18;20.10;99.90
41294;DHT22;27037;52.010;4.446;2023-07-22T15:09:43;20.20;99.90
41294;DHT22;27037;52.010;4.446;2023-07-22T15:12:09;20.30;99.90
41294;DHT22;27037;52.010;4.446;2023-07-22T15:14:36;20.30;99.90
41294;DHT22;27037;52.010;4.446;2023-07-22T15:17:02;20.20;99.90
41294;DHT22;27037;52.010;4.446;2023-07-22T15:19:28;20.20;99.90
41294;DHT22;27037;52.010;4.446;2023-07-22T15:21:53;20.10;99.90
41294;DHT22;27037;52.010;4.446;2023-07-22T15:24:19;20.20;99.90
41294;DHT22;27037;52.010;4.446;2023-07-22T15:26:45;20.20;99.90
41294;DHT22;27037;52.010;4.446;2023-07-22T15:29:10;20.20;99.90
41294;DHT22;27037;52.010;4.446;2023-07-22T15:31:36;20.30;99.90
41294;DHT22;27037;52.010;4.446;2023-07-22T15:34:02;20.30;99.90
41294;DHT22;27037;52.010;4.446;2023-07-22T15:36:27;20.30;99.90
41294;DHT22;27037;52.010;4.446;2023-07-22T15:38:53;20.30;99.90